createdAt,value
2022-09-13T00:01:19.173Z,100143.95
2022-09-13T00:03:55.367Z,100147.90
2022-09-13T00:06:31.436Z,100147.19
2022-09-13T00:09:04.771Z,100146.63
2022-09-13T00:11:40.556Z,100149.17
2022-09-13T00:14:13.913Z,100152.39
2022-09-13T00:16:56.012Z,100154.45
2022-09-13T00:19:32.038Z,100152.58
2022-09-13T00:22:25.491Z,100153.64
2022-09-13T00:24:58.829Z,100153.83
2022-09-13T00:27:41.109Z,100149.10
2022-09-13T00:30:17.836Z,100148.27
2022-09-13T00:32:51.067Z,100144.70
2022-09-13T00:35:25.226Z,100147.65
2022-09-13T00:38:08.710Z,100148.54
2022-09-13T00:40:50.975Z,100148.09
2022-09-13T00:43:38.324Z,100146.94
2022-09-13T00:46:19.432Z,100146.16
2022-09-13T00:49:11.014Z,100146.71
2022-09-13T00:51:51.088Z,100144.46
2022-09-13T00:54:31.643Z,100143.76
2022-09-13T00:57:09.353Z,100145.69
2022-09-13T01:00:11.828Z,100145.52
2022-09-13T01:02:51.211Z,100143.64
2022-09-13T01:05:48.929Z,100146.64
2022-09-13T01:08:23.789Z,100147.55
2022-09-13T01:11:28.214Z,100147.88
2022-09-13T01:14:02.325Z,100150.52
2022-09-13T01:16:56.386Z,100144.94
2022-09-13T01:19:33.169Z,100143.08
2022-09-13T01:22:34.801Z,100143.02
2022-09-13T01:25:55.527Z,100138.51
2022-09-13T01:28:54.305Z,100139.41
2022-09-13T01:31:36.418Z,100137.23
2022-09-13T01:34:22.793Z,100134.73
2022-09-13T01:37:12.229Z,100131.05
2022-09-13T01:40:00.986Z,100133.87
2022-09-13T01:42:48.745Z,100132.05
2022-09-13T01:45:34.170Z,100129.61
2022-09-13T01:48:18.192Z,100127.59
2022-09-13T01:51:02.556Z,100125.20
2022-09-13T01:53:52.148Z,100124.66
2022-09-13T01:56:35.480Z,100120.98
2022-09-13T01:59:16.001Z,100122.83
2022-09-13T02:01:58.915Z,100121.92
2022-09-13T02:04:39.188Z,100119.05
2022-09-13T02:07:15.669Z,100121.05
2022-09-13T02:09:57.110Z,100117.85
2022-09-13T02:12:36.638Z,100119.83
2022-09-13T02:15:25.558Z,100112.27
2022-09-13T02:18:07.628Z,100111.59
2022-09-13T02:20:44.917Z,100112.36
2022-09-13T02:23:24.858Z,100113.44
2022-09-13T02:25:59.060Z,100108.85
2022-09-13T02:28:38.559Z,100105.86
2022-09-13T02:31:39.755Z,100103.13
2022-09-13T02:34:20.513Z,100104.45
2022-09-13T02:36:57.071Z,100100.98
2022-09-13T02:39:33.415Z,100098.42
2022-09-13T02:42:16.089Z,100096.36
2022-09-13T02:44:51.239Z,100094.37
2022-09-13T02:47:45.256Z,100096.06
2022-09-13T02:50:38.132Z,100095.54
2022-09-13T02:53:23.959Z,100093.08
2022-09-13T02:56:08.119Z,100091.12
2022-09-13T02:58:50.723Z,100081.96
2022-09-13T03:01:27.228Z,100080.95
2022-09-13T03:04:03.844Z,100083.95
2022-09-13T03:06:48.281Z,100077.75
2022-09-13T03:09:22.405Z,100074.43
2022-09-13T03:12:20.720Z,100073.07
2022-09-13T03:15:04.092Z,100071.99
2022-09-13T03:17:48.916Z,100071.14
2022-09-13T03:20:32.100Z,100068.36
2022-09-13T03:23:37.533Z,100064.96
2022-09-13T03:26:28.032Z,100067.09
2022-09-13T03:29:15.374Z,100065.13
2022-09-13T03:31:56.023Z,100061.54
2022-09-13T03:34:54.979Z,100060.54
2022-09-13T03:37:35.092Z,100058.98
2022-09-13T03:40:15.352Z,100050.83
2022-09-13T03:42:54.414Z,100053.05
2022-09-13T03:45:41.522Z,100049.45
2022-09-13T03:48:18.994Z,100049.11
2022-09-13T03:50:52.843Z,100050.73
2022-09-13T03:53:28.753Z,100049.64
2022-09-13T03:56:03.745Z,100048.17
2022-09-13T03:58:36.817Z,100047.39
2022-09-13T04:01:15.377Z,100046.00
2022-09-13T04:03:56.356Z,100045.26
2022-09-13T04:06:33.225Z,100044.14
2022-09-13T04:09:09.175Z,100042.98
2022-09-13T04:11:42.334Z,100041.54
2022-09-13T04:14:18.623Z,100038.32
2022-09-13T04:16:51.756Z,100040.56
2022-09-13T04:19:34.094Z,100040.98
2022-09-13T04:22:07.899Z,100040.17
2022-09-13T04:24:44.396Z,100044.99
2022-09-13T04:27:20.799Z,100040.02
2022-09-13T04:29:54.044Z,100041.42
2022-09-13T04:32:27.398Z,100041.77
2022-09-13T04:35:00.803Z,100042.36
2022-09-13T04:37:36.974Z,100045.27
2022-09-13T04:40:15.006Z,100043.80
2022-09-13T04:42:48.892Z,100046.77
2022-09-13T04:45:25.794Z,100046.69
2022-09-13T04:48:00.201Z,100048.10
2022-09-13T04:50:40.852Z,100046.44
2022-09-13T04:53:15.372Z,100047.66
2022-09-13T04:55:48.787Z,100048.67
2022-09-13T04:58:42.323Z,100046.67
2022-09-13T05:01:18.437Z,100043.07
2022-09-13T05:03:55.703Z,100044.09
2022-09-13T05:06:32.389Z,100041.02
2022-09-13T05:09:06.733Z,100042.23
2022-09-13T05:11:40.095Z,100039.64
2022-09-13T05:14:15.098Z,100038.52
2022-09-13T05:16:48.399Z,100034.27
2022-09-13T05:19:21.925Z,100032.48
2022-09-13T05:21:55.172Z,100030.33
2022-09-13T05:24:38.552Z,100029.67
2022-09-13T05:27:11.658Z,100036.38
2022-09-13T05:29:48.409Z,100043.18
2022-09-13T05:32:42.240Z,100045.97
2022-09-13T05:35:27.198Z,100040.54
2022-09-13T05:38:03.119Z,100042.06
2022-09-13T05:40:50.049Z,100037.86
2022-09-13T05:43:23.310Z,100034.79
2022-09-13T05:46:04.294Z,100031.41
2022-09-13T05:48:48.888Z,100028.96
2022-09-13T05:51:35.218Z,100019.31
2022-09-13T05:54:14.284Z,100018.21
2022-09-13T05:56:47.862Z,100012.33
2022-09-13T05:59:21.153Z,100005.19
2022-09-13T06:01:57.107Z,100006.68
2022-09-13T06:04:31.754Z,100008.96
2022-09-13T06:07:05.241Z,100007.15
2022-09-13T06:09:43.114Z,100002.65
2022-09-13T06:12:27.593Z,100000.77
2022-09-13T06:15:01.267Z,99999.09
2022-09-13T06:17:34.615Z,100000.79
2022-09-13T06:20:28.469Z,99997.35
2022-09-13T06:23:01.539Z,99995.15
2022-09-13T06:25:39.394Z,99997.06
2022-09-13T06:28:14.928Z,99995.90
2022-09-13T06:31:03.222Z,99996.84
2022-09-13T06:33:41.612Z,99999.85
2022-09-13T06:36:20.243Z,99997.46
2022-09-13T06:38:53.604Z,99992.27
2022-09-13T06:41:29.588Z,99989.19
2022-09-13T06:44:23.823Z,99982.30
2022-09-13T06:47:11.956Z,99983.59
2022-09-13T06:49:47.286Z,99974.42
2022-09-13T06:52:23.337Z,99978.90
2022-09-13T06:54:56.529Z,99983.33
2022-09-13T06:57:31.829Z,99983.80
2022-09-13T07:00:25.374Z,99982.55
2022-09-13T07:02:58.545Z,99985.40
2022-09-13T07:05:31.670Z,99989.64
2022-09-13T07:08:05.237Z,99987.79
2022-09-13T07:11:02.128Z,99993.75
2022-09-13T07:13:49.030Z,99989.90
2022-09-13T07:16:23.854Z,99986.34
2022-09-13T07:19:19.259Z,99984.37
2022-09-13T07:22:04.499Z,99988.21
2022-09-13T07:24:40.072Z,99988.62
2022-09-13T07:27:15.188Z,99985.35
2022-09-13T07:29:58.675Z,99983.36
2022-09-13T07:32:37.214Z,99988.78
2022-09-13T07:35:13.139Z,99982.70
2022-09-13T07:37:57.495Z,99976.06
2022-09-13T07:40:42.748Z,99979.84
2022-09-13T07:43:15.951Z,99977.53
2022-09-13T07:46:11.004Z,99973.80
2022-09-13T07:49:04.937Z,99982.34
2022-09-13T07:51:51.713Z,99978.48
2022-09-13T07:54:37.058Z,99979.96
2022-09-13T07:57:10.214Z,99983.84
2022-09-13T07:59:53.329Z,99985.75
2022-09-13T08:02:47.035Z,99989.77
2022-09-13T08:05:43.771Z,99987.08
2022-09-13T08:08:38.538Z,99985.48
2022-09-13T08:11:19.690Z,99981.21
2022-09-13T08:13:54.109Z,99978.33
2022-09-13T08:16:28.516Z,99977.44
2022-09-13T08:19:05.888Z,99976.11
2022-09-13T08:21:41.714Z,99968.11
2022-09-13T08:24:19.915Z,99967.06
2022-09-13T08:27:13.853Z,99968.41
2022-09-13T08:30:08.751Z,99962.33
2022-09-13T08:33:02.944Z,99960.17
2022-09-13T08:35:39.525Z,99958.88
2022-09-13T08:38:12.872Z,99956.60
2022-09-13T08:41:26.093Z,99952.75
2022-09-13T08:44:08.199Z,99954.64
2022-09-13T08:46:46.632Z,99957.80
2022-09-13T08:49:34.294Z,99955.27
2022-09-13T08:52:26.191Z,99953.71
2022-09-13T08:54:59.576Z,99955.19
2022-09-13T08:57:38.884Z,99949.61
2022-09-13T09:00:32.651Z,99943.43
2022-09-13T09:03:18.744Z,99943.19
2022-09-13T09:05:53.127Z,99940.77
2022-09-13T09:08:34.726Z,99941.82
2022-09-13T09:11:12.387Z,99942.84
2022-09-13T09:14:14.246Z,99936.79
2022-09-13T09:17:14.853Z,99932.79
2022-09-13T09:19:55.950Z,99932.69
2022-09-13T09:22:36.222Z,99931.05
2022-09-13T09:25:14.643Z,99931.85
2022-09-13T09:27:46.047Z,99922.86
2022-09-13T09:30:19.974Z,99919.70
2022-09-13T09:33:12.936Z,99913.04
2022-09-13T09:36:04.246Z,99909.66
2022-09-13T09:38:41.514Z,99910.59
2022-09-13T09:41:26.068Z,99910.02
2022-09-13T09:44:08.086Z,99906.73
2022-09-13T09:46:44.354Z,99900.85
2022-09-13T09:49:52.355Z,99897.09
2022-09-13T09:52:31.382Z,99892.08
2022-09-13T09:55:14.325Z,99889.34
2022-09-13T09:58:02.341Z,99886.50
2022-09-13T10:00:56.488Z,99878.22
2022-09-13T10:03:57.947Z,99879.43
2022-09-13T10:06:31.498Z,99873.71
2022-09-13T10:09:21.512Z,99872.10
2022-09-13T10:11:57.421Z,99871.48
2022-09-13T10:14:42.814Z,99867.71
2022-09-13T10:17:23.482Z,99866.23
2022-09-13T10:20:05.436Z,99863.14
2022-09-13T10:22:40.176Z,99862.62
2022-09-13T10:25:23.268Z,99861.25
2022-09-13T10:27:58.573Z,99865.73
2022-09-13T10:30:38.046Z,99857.00
2022-09-13T10:33:27.282Z,99855.89
2022-09-13T10:36:00.830Z,99848.98
2022-09-13T10:38:37.472Z,99847.08
2022-09-13T10:41:22.546Z,99847.98
2022-09-13T10:44:05.509Z,99838.98
2022-09-13T10:46:44.725Z,99834.58
2022-09-13T10:49:42.009Z,99830.95
2022-09-13T10:52:31.327Z,99832.96
2022-09-13T10:55:32.367Z,99833.61
2022-09-13T10:58:18.303Z,99834.75
2022-09-13T11:01:18.576Z,99833.38
2022-09-13T11:04:16.515Z,99830.57
2022-09-13T11:07:00.977Z,99823.77
2022-09-13T11:09:39.598Z,99820.30
2022-09-13T11:12:21.169Z,99820.35
2022-09-13T11:15:29.158Z,99825.42
2022-09-13T11:18:50.243Z,99817.11
2022-09-13T11:21:38.467Z,99817.73
2022-09-13T11:24:35.204Z,99807.36
2022-09-13T11:27:31.447Z,99809.94
2022-09-13T11:30:18.627Z,99807.89
2022-09-13T11:33:21.237Z,99807.38
2022-09-13T11:36:26.706Z,99804.90
2022-09-13T11:39:09.622Z,99797.30
2022-09-13T11:41:50.999Z,99796.87
2022-09-13T11:44:44.300Z,99794.95
2022-09-13T11:47:31.251Z,99794.23
2022-09-13T11:50:24.719Z,99784.69
2022-09-13T11:53:14.431Z,99779.27
2022-09-13T11:55:51.511Z,99769.58
2022-09-13T11:58:34.558Z,99763.95
2022-09-13T12:01:10.292Z,99759.40
2022-09-13T12:03:54.809Z,99754.75
2022-09-13T12:06:44.552Z,99746.70
2022-09-13T12:09:22.603Z,99742.15
2022-09-13T12:12:03.863Z,99739.65
2022-09-13T12:15:02.580Z,99730.02
2022-09-13T12:18:02.126Z,99722.87
2022-09-13T12:20:42.724Z,99718.60
2022-09-13T12:23:40.581Z,99717.13
2022-09-13T12:26:20.737Z,99708.15
2022-09-13T12:28:59.824Z,99704.89
2022-09-13T12:31:34.458Z,99700.66
2022-09-13T12:34:11.938Z,99696.45
2022-09-13T12:37:06.213Z,99696.61
2022-09-13T12:39:59.204Z,99697.96
2022-09-13T12:43:11.827Z,99696.64
2022-09-13T12:46:19.918Z,99701.67
2022-09-13T12:49:20.816Z,99698.48
2022-09-13T12:52:02.568Z,99694.21
2022-09-13T12:55:02.500Z,99686.48
2022-09-13T12:57:47.624Z,99685.84
2022-09-13T13:00:27.128Z,99681.05
2022-09-13T13:03:18.304Z,99680.27
2022-09-13T13:05:56.649Z,99678.23
2022-09-13T13:08:32.519Z,99674.02
2022-09-13T13:11:18.123Z,99673.73
2022-09-13T13:14:09.959Z,99666.30
2022-09-13T13:16:53.405Z,99667.55
2022-09-13T13:19:37.466Z,99665.44
2022-09-13T13:22:42.474Z,99657.84
2022-09-13T13:25:39.386Z,99647.33
2022-09-13T13:28:56.231Z,99637.69
2022-09-13T13:31:43.832Z,99638.00
2022-09-13T13:34:41.720Z,99637.23
2022-09-13T13:37:40.559Z,99640.95
2022-09-13T13:40:29.456Z,99643.69
2022-09-13T13:43:34.008Z,99641.82
2022-09-13T13:46:28.217Z,99641.86
2022-09-13T13:49:34.888Z,99638.88
2022-09-13T13:52:41.485Z,99635.48
2022-09-13T13:55:47.171Z,99633.25
2022-09-13T13:58:46.809Z,99635.07
2022-09-13T14:01:27.486Z,99637.08
2022-09-13T14:04:44.407Z,99639.65
2022-09-13T14:07:54.515Z,99631.77
2022-09-13T14:13:32.856Z,99624.27
2022-09-13T14:16:14.351Z,99617.58
2022-09-13T14:19:11.790Z,99606.91
2022-09-13T14:21:45.284Z,99604.61
2022-09-13T14:24:23.858Z,99598.95
2022-09-13T14:26:59.907Z,99592.76
2022-09-13T14:29:36.231Z,99589.96
2022-09-13T14:32:15.727Z,99585.09
2022-09-13T14:34:57.943Z,99578.77
2022-09-13T14:37:42.179Z,99573.30
2022-09-13T14:40:22.034Z,99578.33
2022-09-13T14:42:56.344Z,99576.07
2022-09-13T14:45:37.031Z,99571.67
2022-09-13T14:48:17.453Z,99569.54
2022-09-13T14:50:57.340Z,99570.13
2022-09-13T14:53:36.077Z,99569.06
2022-09-13T14:56:24.886Z,99563.91
2022-09-13T14:59:00.387Z,99560.14
2022-09-13T15:01:36.167Z,99559.27
2022-09-13T15:04:12.962Z,99554.52
2022-09-13T15:06:46.114Z,99552.37
2022-09-13T15:09:29.937Z,99555.73
2022-09-13T15:12:03.779Z,99550.56
2022-09-13T15:14:39.742Z,99547.86
2022-09-13T15:17:14.880Z,99544.03
2022-09-13T15:19:53.622Z,99543.48
2022-09-13T15:22:35.075Z,99543.85
2022-09-13T15:25:25.415Z,99539.31
2022-09-13T15:28:00.171Z,99537.95
2022-09-13T15:30:43.388Z,99536.55
2022-09-13T15:33:24.970Z,99538.16
2022-09-13T15:36:17.904Z,99536.17
2022-09-13T15:39:20.326Z,99533.13
2022-09-13T15:42:03.333Z,99531.35
2022-09-13T15:44:39.613Z,99526.42
2022-09-13T15:47:20.516Z,99528.61
2022-09-13T15:49:55.088Z,99531.66
2022-09-13T15:52:28.316Z,99527.77
2022-09-13T15:55:02.137Z,99527.38
2022-09-13T15:57:35.377Z,99526.27
2022-09-13T16:00:16.053Z,99523.71
2022-09-13T16:02:50.270Z,99517.73
2022-09-13T16:05:23.827Z,99516.20
2022-09-13T16:07:59.182Z,99510.73
2022-09-13T16:10:33.014Z,99509.89
2022-09-13T16:13:09.772Z,99505.48
2022-09-13T16:15:43.046Z,99503.29
2022-09-13T16:18:19.559Z,99499.30
2022-09-13T16:21:00.921Z,99494.95
2022-09-13T16:23:36.408Z,99491.11
2022-09-13T16:26:13.834Z,99487.83
2022-09-13T16:28:47.114Z,99488.22
2022-09-13T16:31:22.660Z,99483.98
2022-09-13T16:34:06.939Z,99479.06
2022-09-13T16:36:40.000Z,99479.29
2022-09-13T16:39:13.300Z,99476.73
2022-09-13T16:41:46.471Z,99477.84
2022-09-13T16:44:29.182Z,99475.73
2022-09-13T16:47:02.745Z,99473.52
2022-09-13T16:49:36.035Z,99469.23
2022-09-13T16:52:12.458Z,99469.70
2022-09-13T16:55:06.162Z,99471.85
2022-09-13T16:57:39.630Z,99474.92
2022-09-13T17:00:16.034Z,99481.42
2022-09-13T17:02:49.682Z,99479.39
2022-09-13T17:05:43.421Z,99477.70
2022-09-13T17:08:26.817Z,99467.04
2022-09-13T17:11:06.034Z,99462.95
2022-09-13T17:13:51.442Z,99466.74
2022-09-13T17:16:30.431Z,99467.13
2022-09-13T17:19:08.804Z,99467.41
2022-09-13T17:21:45.541Z,99462.90
2022-09-13T17:24:39.693Z,99461.34
2022-09-13T17:27:12.952Z,99461.89
2022-09-13T17:29:51.770Z,99460.01
2022-09-13T17:32:24.918Z,99460.43
2022-09-13T17:34:58.115Z,99462.69
2022-09-13T17:37:33.979Z,99459.23
2022-09-13T17:40:16.755Z,99459.02
2022-09-13T17:43:10.215Z,99460.33
2022-09-13T17:46:08.719Z,99460.12
2022-09-13T17:48:41.978Z,99455.57
2022-09-13T17:51:16.623Z,99452.11
2022-09-13T17:53:51.346Z,99452.55
2022-09-13T17:56:30.569Z,99451.39
2022-09-13T17:59:10.178Z,99451.71
2022-09-13T18:01:46.226Z,99451.45
2022-09-13T18:04:21.443Z,99451.55
2022-09-13T18:06:55.797Z,99455.98
2022-09-13T18:09:29.468Z,99459.90
2022-09-13T18:12:03.176Z,99456.21
2022-09-13T18:14:38.851Z,99458.90
2022-09-13T18:17:15.460Z,99456.29
2022-09-13T18:19:52.548Z,99457.77
2022-09-13T18:22:26.287Z,99455.70
2022-09-13T18:25:03.336Z,99452.88
2022-09-13T18:27:40.575Z,99452.40
2022-09-13T18:30:25.616Z,99440.05
2022-09-13T18:33:02.699Z,99441.02
2022-09-13T18:35:39.553Z,99436.88
2022-09-13T18:38:22.137Z,99435.41
2022-09-13T18:41:06.435Z,99431.81
2022-09-13T18:43:42.343Z,99427.64
2022-09-13T18:46:20.896Z,99422.21
2022-09-13T18:48:57.892Z,99417.88
2022-09-13T18:51:34.017Z,99413.99
2022-09-13T18:54:12.897Z,99412.09
2022-09-13T18:56:46.363Z,99408.23
2022-09-13T18:59:28.325Z,99398.46
2022-09-13T19:02:05.962Z,99397.52
2022-09-13T19:04:43.518Z,99395.20
2022-09-13T19:07:16.919Z,99392.13
2022-09-13T19:09:59.845Z,99390.51
2022-09-13T19:12:33.291Z,99392.94
2022-09-13T19:15:09.445Z,99391.98
2022-09-13T19:17:43.499Z,99390.05
2022-09-13T19:20:17.500Z,99389.81
2022-09-13T19:22:52.855Z,99392.34
2022-09-13T19:25:37.726Z,99391.08
2022-09-13T19:28:11.415Z,99393.09
2022-09-13T19:30:54.770Z,99389.88
2022-09-13T19:33:33.646Z,99391.09
2022-09-13T19:36:12.896Z,99389.24
2022-09-13T19:38:48.066Z,99380.88
2022-09-13T19:41:42.952Z,99375.80
2022-09-13T19:44:18.288Z,99370.04
2022-09-13T19:47:53.245Z,99366.16
2022-09-13T19:50:00.495Z,99363.27
2022-09-13T19:52:37.125Z,99364.05
2022-09-13T19:55:14.421Z,99360.52
2022-09-13T19:57:48.222Z,99356.14
2022-09-13T20:00:25.136Z,99355.84
2022-09-13T20:03:02.216Z,99357.65
2022-09-13T20:05:38.332Z,99352.09
2022-09-13T20:08:12.105Z,99354.16
2022-09-13T20:11:10.144Z,99347.89
2022-09-13T20:14:04.853Z,99342.92
2022-09-13T20:16:40.489Z,99350.17
2022-09-13T20:22:14.455Z,99348.41
2022-09-13T20:24:48.023Z,99344.98
2022-09-13T20:27:22.105Z,99337.77
2022-09-13T20:29:56.466Z,99335.64
2022-09-13T20:32:30.153Z,99332.21
2022-09-13T20:35:15.111Z,99329.78
2022-09-13T20:37:50.193Z,99325.84
2022-09-13T20:40:24.819Z,99325.92
2022-09-13T20:42:58.616Z,99329.45
2022-09-13T20:45:32.303Z,99323.88
2022-09-13T20:48:26.141Z,99319.52
2022-09-13T20:51:05.532Z,99318.87
2022-09-13T20:53:46.593Z,99319.59
2022-09-13T20:56:40.707Z,99319.59
2022-09-13T20:59:14.871Z,99314.25
2022-09-13T21:01:48.401Z,99313.08
2022-09-13T21:04:22.471Z,99304.77
2022-09-13T21:07:15.924Z,99301.50
2022-09-13T21:09:49.206Z,99310.41
2022-09-13T21:12:22.610Z,99306.28
2022-09-13T21:14:56.093Z,99302.30
2022-09-13T21:17:29.373Z,99303.14
2022-09-13T21:20:02.540Z,99304.95
2022-09-13T21:22:36.446Z,99303.27
2022-09-13T21:25:11.279Z,99304.92
2022-09-13T21:27:47.860Z,99304.46
2022-09-13T21:30:41.667Z,99303.59
2022-09-13T21:33:14.879Z,99297.48
2022-09-13T21:35:48.101Z,99296.03
2022-09-13T21:38:21.628Z,99296.34
2022-09-13T21:41:17.024Z,99296.50
2022-09-13T21:43:53.034Z,99299.53
2022-09-13T21:46:30.633Z,99297.44
2022-09-13T21:49:18.247Z,99295.08
2022-09-13T21:52:01.592Z,99296.25
2022-09-13T21:54:44.078Z,99293.70
2022-09-13T21:57:21.086Z,99290.36
2022-09-13T21:59:54.237Z,99292.39
2022-09-13T22:02:28.419Z,99281.60
2022-09-13T22:05:01.629Z,99279.38
2022-09-13T22:07:34.952Z,99276.27
2022-09-13T22:10:10.243Z,99275.64
2022-09-13T22:13:01.306Z,99273.25
2022-09-13T22:15:35.950Z,99266.03
2022-09-13T22:18:09.457Z,99266.70
2022-09-13T22:20:42.560Z,99264.89
2022-09-13T22:23:15.849Z,99263.66
2022-09-13T22:25:49.008Z,99259.01
2022-09-13T22:28:22.617Z,99257.89
2022-09-13T22:31:04.691Z,99256.80
2022-09-13T22:33:48.503Z,99252.17
2022-09-13T22:36:25.413Z,99249.54
2022-09-13T22:39:02.007Z,99249.24
2022-09-13T22:41:38.269Z,99248.58
2022-09-13T22:44:12.218Z,99244.95
2022-09-13T22:46:48.332Z,99248.76
2022-09-13T22:49:22.276Z,99247.69
2022-09-13T22:52:04.852Z,99245.87
2022-09-13T22:54:51.466Z,99246.95
2022-09-13T22:57:34.902Z,99246.96
2022-09-13T23:00:09.834Z,99248.20
2022-09-13T23:02:46.973Z,99248.45
2022-09-13T23:05:23.611Z,99243.34
2022-09-13T23:07:59.758Z,99238.77
2022-09-13T23:10:44.332Z,99236.79
2022-09-13T23:13:17.632Z,99239.05
2022-09-13T23:15:50.920Z,99240.45
2022-09-13T23:18:24.188Z,99238.34
2022-09-13T23:21:00.925Z,99234.98
2022-09-13T23:23:37.625Z,99238.15
2022-09-13T23:26:17.793Z,99241.81
2022-09-13T23:28:56.751Z,99236.62
2022-09-13T23:31:31.840Z,99237.39
2022-09-13T23:34:08.217Z,99238.35
2022-09-13T23:36:43.540Z,99240.93
2022-09-13T23:39:20.490Z,99245.27
2022-09-13T23:41:53.845Z,99248.27
2022-09-13T23:44:36.254Z,99244.92
2022-09-13T23:47:13.311Z,99244.87
2022-09-13T23:50:07.710Z,99248.45
2022-09-13T23:52:43.912Z,99253.04
2022-09-13T23:55:22.050Z,99247.86
2022-09-13T23:58:00.425Z,99245.20
